createdAt,value
2018-12-21T00:00:49.075Z,8.90
2018-12-21T00:03:16.988Z,9.10
2018-12-21T00:05:45.017Z,9.90
2018-12-21T00:08:12.869Z,10.00
2018-12-21T00:10:40.810Z,9.60
2018-12-21T00:13:08.822Z,9.90
2018-12-21T00:15:36.667Z,10.10
2018-12-21T00:18:04.760Z,9.80
2018-12-21T00:20:32.801Z,10.40
2018-12-21T00:23:00.764Z,10.20
2018-12-21T00:25:28.565Z,9.40
2018-12-21T00:27:56.532Z,10.77
2018-12-21T00:30:26.961Z,10.17
2018-12-21T00:33:00.526Z,10.30
2018-12-21T00:35:34.143Z,9.97
2018-12-21T00:38:07.762Z,10.07
2018-12-21T00:40:41.568Z,9.97
2018-12-21T00:46:06.280Z,9.40
2018-12-21T00:48:34.249Z,9.67
2018-12-21T00:51:01.983Z,8.63
2018-12-21T00:53:29.975Z,9.40
2018-12-21T00:55:58.053Z,8.87
2018-12-21T00:58:26.105Z,9.37
2018-12-21T01:00:54.401Z,9.30
2018-12-21T01:03:22.666Z,8.50
2018-12-21T01:05:50.403Z,8.57
2018-12-21T01:08:18.819Z,8.47
2018-12-21T01:10:46.534Z,8.80
2018-12-21T01:13:14.727Z,9.87
2018-12-21T01:15:42.666Z,8.20
2018-12-21T01:18:10.695Z,8.10
2018-12-21T01:20:38.395Z,7.90
2018-12-21T01:23:06.286Z,8.40
2018-12-21T01:25:34.152Z,7.57
2018-12-21T01:28:02.068Z,8.00
2018-12-21T01:30:30.023Z,7.63
2018-12-21T01:32:58.098Z,8.60
2018-12-21T01:35:25.815Z,8.00
2018-12-21T01:37:53.806Z,7.53
2018-12-21T01:40:21.749Z,7.07
2018-12-21T01:42:49.637Z,6.87
2018-12-21T01:45:17.603Z,6.97
2018-12-21T01:47:45.544Z,7.03
2018-12-21T01:50:13.434Z,6.57
2018-12-21T01:52:41.352Z,6.20
2018-12-21T01:55:09.218Z,6.50
2018-12-21T01:57:37.361Z,6.63
2018-12-21T02:00:06.615Z,7.00
2018-12-21T02:02:34.514Z,6.30
2018-12-21T02:05:02.456Z,6.70
2018-12-21T02:07:30.469Z,6.77
2018-12-21T02:09:58.411Z,6.17
2018-12-21T02:12:26.276Z,6.53
2018-12-21T02:14:54.192Z,6.00
2018-12-21T02:17:22.333Z,5.57
2018-12-21T02:19:50.599Z,5.73
2018-12-21T02:22:18.564Z,5.73
2018-12-21T02:24:46.430Z,5.50
2018-12-21T02:27:14.295Z,5.30
2018-12-21T02:29:42.312Z,6.10
2018-12-21T02:32:10.582Z,5.50
2018-12-21T02:34:38.766Z,5.50
2018-12-21T02:37:06.609Z,5.13
2018-12-21T02:39:34.902Z,5.07
2018-12-21T02:42:02.864Z,5.63
2018-12-21T02:44:30.805Z,6.07
2018-12-21T02:46:58.672Z,5.67
2018-12-21T02:49:26.648Z,5.03
2018-12-21T02:51:54.745Z,5.10
2018-12-21T02:54:22.746Z,5.70
2018-12-21T02:56:50.585Z,4.97
2018-12-21T02:59:18.526Z,5.37
2018-12-21T03:01:46.619Z,4.83
2018-12-21T03:04:14.629Z,4.80
2018-12-21T03:06:43.123Z,4.93
2018-12-21T03:09:11.088Z,6.10
2018-12-21T03:11:39.110Z,5.57
2018-12-21T03:14:07.144Z,5.43
2018-12-21T03:16:35.109Z,5.60
2018-12-21T03:19:03.026Z,4.93
2018-12-21T03:21:31.188Z,6.03
2018-12-21T03:23:59.132Z,5.40
2018-12-21T03:26:26.979Z,5.73
2018-12-21T03:28:55.401Z,5.63
2018-12-21T03:31:23.430Z,6.03
2018-12-21T03:33:51.546Z,5.53
2018-12-21T03:36:19.586Z,5.80
2018-12-21T03:38:47.526Z,5.50
2018-12-21T03:41:15.516Z,6.87
2018-12-21T03:43:43.482Z,5.43
2018-12-21T03:46:11.627Z,6.33
2018-12-21T03:48:39.770Z,6.03
2018-12-21T03:51:07.805Z,5.80
2018-12-21T03:53:35.910Z,5.97
2018-12-21T03:56:03.960Z,6.03
2018-12-21T03:58:33.079Z,6.20
2018-12-21T04:01:01.117Z,6.00
2018-12-21T04:03:29.058Z,5.70
2018-12-21T04:05:57.048Z,6.10
2018-12-21T04:08:25.157Z,5.60
2018-12-21T04:10:53.229Z,6.10
2018-12-21T04:13:21.300Z,5.80
2018-12-21T04:15:49.013Z,6.60
2018-12-21T04:18:17.041Z,6.33
2018-12-21T04:20:44.992Z,6.43
2018-12-21T04:23:13.034Z,6.30
2018-12-21T04:25:40.899Z,6.77
2018-12-21T04:28:08.814Z,7.70
2018-12-21T04:30:36.756Z,7.30
2018-12-21T04:33:04.857Z,7.30
2018-12-21T04:35:32.586Z,7.47
2018-12-21T04:38:00.555Z,7.40
2018-12-21T04:40:28.651Z,8.10
2018-12-21T04:42:56.684Z,7.40
2018-12-21T04:45:24.651Z,8.10
2018-12-21T04:47:52.519Z,7.87
2018-12-21T04:50:20.506Z,6.63
2018-12-21T04:52:48.595Z,7.83
2018-12-21T04:55:16.636Z,8.33
2018-12-21T04:57:44.738Z,7.37
2018-12-21T05:00:12.568Z,7.03
2018-12-21T05:02:41.093Z,7.30
2018-12-21T05:05:09.125Z,7.93
2018-12-21T05:07:37.436Z,7.13
2018-12-21T05:10:06.650Z,7.33
2018-12-21T05:12:34.497Z,7.50
2018-12-21T05:15:02.441Z,6.97
2018-12-21T05:17:30.378Z,7.63
2018-12-21T05:19:58.371Z,7.80
2018-12-21T05:22:26.335Z,6.90
2018-12-21T05:24:54.525Z,7.30
2018-12-21T05:27:22.617Z,7.23
2018-12-21T05:29:50.657Z,7.70
2018-12-21T05:32:18.760Z,7.00
2018-12-21T05:34:46.763Z,7.67
2018-12-21T05:37:14.680Z,7.50
2018-12-21T05:39:42.620Z,6.90
2018-12-21T05:42:10.486Z,7.80
2018-12-21T05:44:38.679Z,8.00
2018-12-21T05:47:06.617Z,7.50
2018-12-21T05:49:34.645Z,7.13
2018-12-21T05:52:02.715Z,7.10
2018-12-21T05:54:30.684Z,7.50
2018-12-21T05:56:58.529Z,7.80
2018-12-21T05:59:26.622Z,6.67
2018-12-21T06:01:54.661Z,7.77
2018-12-21T06:04:22.549Z,6.90
2018-12-21T06:06:50.492Z,7.43
2018-12-21T06:09:18.558Z,7.17
2018-12-21T06:11:46.569Z,6.87
2018-12-21T06:14:14.541Z,7.20
2018-12-21T06:16:42.624Z,7.23
2018-12-21T06:19:12.231Z,7.80
2018-12-21T06:21:40.363Z,8.70
2018-12-21T06:24:08.153Z,8.27
2018-12-21T06:26:36.119Z,8.27
2018-12-21T06:29:04.158Z,7.93
2018-12-21T06:31:32.148Z,8.50
2018-12-21T06:34:00.091Z,7.87
2018-12-21T06:36:28.100Z,7.80
2018-12-21T06:38:56.001Z,8.80
2018-12-21T06:41:23.887Z,8.73
2018-12-21T06:43:51.906Z,9.10
2018-12-21T06:46:19.944Z,10.40
2018-12-21T06:48:48.032Z,9.17
2018-12-21T06:51:16.100Z,9.00
2018-12-21T06:53:44.190Z,8.53
2018-12-21T06:56:12.231Z,8.30
2018-12-21T06:58:40.332Z,8.37
2018-12-21T07:01:08.394Z,7.20
2018-12-21T07:03:36.475Z,7.67
2018-12-21T07:06:04.543Z,7.80
2018-12-21T07:08:32.459Z,7.27
2018-12-21T07:11:00.275Z,7.90
2018-12-21T07:13:28.191Z,7.83
2018-12-21T07:15:56.184Z,7.50
2018-12-21T07:18:24.287Z,7.60
2018-12-21T07:20:52.213Z,7.67
2018-12-21T07:23:27.025Z,7.17
2018-12-21T07:25:50.195Z,6.87
2018-12-21T07:28:18.212Z,7.70
2018-12-21T07:30:46.425Z,7.57
2018-12-21T07:33:14.415Z,6.40
2018-12-21T07:35:42.215Z,7.50
2018-12-21T07:38:10.199Z,7.07
2018-12-21T07:40:38.138Z,7.63
2018-12-21T07:43:06.228Z,7.90
2018-12-21T07:45:34.269Z,7.87
2018-12-21T07:48:02.373Z,8.03
2018-12-21T07:50:30.358Z,8.50
2018-12-21T07:52:58.515Z,7.27
2018-12-21T07:55:27.182Z,7.77
2018-12-21T07:57:55.272Z,7.03
2018-12-21T08:00:23.342Z,7.23
2018-12-21T08:02:51.380Z,7.90
2018-12-21T08:05:19.669Z,5.93
2018-12-21T08:07:47.611Z,6.60
2018-12-21T08:10:15.831Z,6.93
2018-12-21T08:12:43.867Z,6.77
2018-12-21T08:15:11.783Z,6.00
2018-12-21T08:17:39.849Z,6.03
2018-12-21T08:20:07.879Z,6.53
2018-12-21T08:22:35.879Z,6.37
2018-12-21T08:25:04.544Z,6.70
2018-12-21T08:27:32.634Z,5.67
2018-12-21T08:30:00.553Z,6.30
2018-12-21T08:32:28.442Z,5.50
2018-12-21T08:34:56.283Z,5.87
2018-12-21T08:37:24.148Z,5.90
2018-12-21T08:39:52.238Z,5.33
2018-12-21T08:42:20.246Z,5.60
2018-12-21T08:44:48.422Z,6.03
2018-12-21T08:47:16.284Z,5.50
2018-12-21T08:49:44.357Z,6.10
2018-12-21T08:52:12.318Z,5.30
2018-12-21T08:54:40.259Z,5.13
2018-12-21T08:57:08.324Z,4.90
2018-12-21T08:59:36.365Z,4.93
2018-12-21T09:02:04.281Z,5.33
2018-12-21T09:04:32.578Z,5.17
2018-12-21T09:07:00.651Z,4.07
2018-12-21T09:09:28.723Z,4.17
2018-12-21T09:11:56.444Z,4.07
2018-12-21T09:14:24.455Z,4.70
2018-12-21T09:16:52.299Z,3.83
2018-12-21T09:19:20.393Z,3.90
2018-12-21T09:21:48.305Z,3.70
2018-12-21T09:24:16.198Z,4.10
2018-12-21T09:26:44.162Z,3.57
2018-12-21T09:29:12.107Z,3.50
2018-12-21T09:31:39.924Z,3.70
2018-12-21T09:34:08.035Z,3.70
2018-12-21T09:36:36.150Z,3.13
2018-12-21T09:39:05.473Z,3.13
2018-12-21T09:41:33.181Z,3.20
2018-12-21T09:44:01.171Z,2.57
2018-12-21T09:46:29.278Z,3.17
2018-12-21T09:48:57.146Z,3.10
2018-12-21T09:51:25.156Z,3.03
2018-12-21T09:53:53.259Z,3.60
2018-12-21T09:56:21.358Z,3.00
2018-12-21T09:58:49.341Z,3.23
2018-12-21T10:01:17.501Z,3.10
2018-12-21T10:03:45.947Z,2.70
2018-12-21T10:06:14.187Z,2.77
2018-12-21T10:08:42.153Z,2.50
2018-12-21T10:11:10.192Z,2.77
2018-12-21T10:13:38.267Z,2.60
2018-12-21T10:16:06.300Z,2.13
2018-12-21T10:18:34.917Z,2.37
2018-12-21T10:21:02.860Z,2.43
2018-12-21T10:23:30.797Z,2.47
2018-12-21T10:25:58.864Z,2.20
2018-12-21T10:28:26.978Z,2.47
2018-12-21T10:30:54.921Z,2.60
2018-12-21T10:33:22.942Z,2.47
2018-12-21T10:35:50.676Z,2.73
2018-12-21T10:38:18.716Z,2.37
2018-12-21T10:40:46.581Z,2.53
2018-12-21T10:43:14.572Z,2.23
2018-12-21T10:45:42.681Z,2.80
2018-12-21T10:48:10.649Z,2.37
2018-12-21T10:50:38.595Z,2.50
2018-12-21T10:53:06.660Z,2.30
2018-12-21T10:55:34.761Z,2.33
2018-12-21T10:58:02.832Z,2.40
2018-12-21T11:00:30.903Z,2.77
2018-12-21T11:02:58.823Z,2.80
2018-12-21T11:05:26.715Z,2.60
2018-12-21T11:07:54.679Z,2.13
2018-12-21T11:10:22.620Z,2.20
2018-12-21T11:12:50.535Z,2.40
2018-12-21T11:15:18.477Z,2.87
2018-12-21T11:17:46.583Z,3.10
2018-12-21T11:20:14.308Z,2.70
2018-12-21T11:22:42.427Z,2.33
2018-12-21T11:25:11.092Z,2.60
2018-12-21T11:27:39.031Z,2.60
2018-12-21T11:30:08.719Z,2.60
2018-12-21T11:32:36.787Z,2.50
2018-12-21T11:35:05.133Z,2.57
2018-12-21T11:37:33.119Z,2.53
2018-12-21T11:40:01.068Z,2.37
2018-12-21T11:42:29.049Z,2.50
2018-12-21T11:44:56.891Z,2.30
2018-12-21T11:47:24.783Z,2.20
2018-12-21T11:49:52.723Z,2.87
2018-12-21T11:52:20.809Z,4.70
2018-12-21T11:54:48.854Z,2.77
2018-12-21T11:57:16.952Z,2.80
2018-12-21T11:59:45.248Z,2.57
2018-12-21T12:02:19.522Z,2.60
2018-12-21T12:04:43.191Z,2.63
2018-12-21T12:07:11.258Z,2.07
2018-12-21T12:09:39.197Z,2.67
2018-12-21T12:12:07.227Z,2.63
2018-12-21T12:14:35.159Z,2.17
2018-12-21T12:17:03.069Z,2.33
2018-12-21T12:19:31.085Z,2.23
2018-12-21T12:21:59.098Z,2.23
2018-12-21T12:24:27.115Z,1.93
2018-12-21T12:26:54.882Z,2.37
2018-12-21T12:29:22.822Z,1.90
2018-12-21T12:31:50.739Z,2.10
2018-12-21T12:34:18.804Z,2.10
2018-12-21T12:36:46.781Z,2.23
2018-12-21T12:39:14.835Z,2.70
2018-12-21T12:41:42.850Z,2.97
2018-12-21T12:44:10.766Z,3.27
2018-12-21T12:46:38.786Z,2.57
2018-12-21T12:49:06.773Z,2.77
2018-12-21T12:51:34.724Z,3.00
2018-12-21T12:54:02.796Z,3.97
2018-12-21T12:56:30.847Z,2.93
2018-12-21T12:58:58.942Z,2.47
2018-12-21T13:01:27.010Z,2.70
2018-12-21T13:03:55.082Z,2.53
2018-12-21T13:06:23.134Z,3.33
2018-12-21T13:08:51.223Z,3.30
2018-12-21T13:11:19.139Z,3.00
2018-12-21T13:13:47.057Z,3.17
2018-12-21T13:16:15.027Z,3.03
2018-12-21T13:18:42.787Z,3.10
2018-12-21T13:21:10.728Z,4.17
2018-12-21T13:23:38.793Z,3.27
2018-12-21T13:26:07.285Z,3.83
2018-12-21T13:28:35.585Z,3.33
2018-12-21T13:31:03.255Z,3.87
2018-12-21T13:33:31.526Z,3.30
2018-12-21T13:36:00.331Z,2.90
2018-12-21T13:38:28.463Z,3.13
2018-12-21T13:40:56.528Z,2.60
2018-12-21T13:43:24.632Z,2.83
2018-12-21T13:45:52.702Z,2.97
2018-12-21T13:48:20.756Z,4.03
2018-12-21T13:50:48.916Z,4.13
2018-12-21T13:53:17.106Z,3.63
2018-12-21T13:55:45.173Z,3.10
2018-12-21T13:58:13.263Z,2.90
2018-12-21T14:00:40.981Z,3.37
2018-12-21T14:03:08.969Z,2.53
2018-12-21T14:05:37.116Z,2.53
2018-12-21T14:08:05.251Z,3.07
2018-12-21T14:10:33.211Z,2.90
2018-12-21T14:13:00.932Z,2.60
2018-12-21T14:15:28.923Z,2.50
2018-12-21T14:17:56.913Z,2.63
2018-12-21T14:20:25.085Z,2.80
2018-12-21T14:22:53.119Z,2.60
2018-12-21T14:25:28.596Z,3.30
2018-12-21T14:27:51.347Z,2.67
2018-12-21T14:30:19.316Z,2.97
2018-12-21T14:32:47.333Z,3.20
2018-12-21T14:35:15.423Z,3.80
2018-12-21T14:37:43.615Z,3.63
2018-12-21T14:40:11.685Z,3.40
2018-12-21T14:42:39.744Z,3.70
2018-12-21T14:45:08.039Z,4.20
2018-12-21T14:47:36.124Z,3.80
2018-12-21T14:50:05.896Z,4.00
2018-12-21T14:52:33.757Z,4.20
2018-12-21T14:55:01.771Z,4.00
2018-12-21T14:57:30.139Z,4.17
2018-12-21T14:59:58.004Z,4.43
2018-12-21T15:02:25.820Z,4.63
2018-12-21T15:04:53.685Z,4.20
2018-12-21T15:07:21.716Z,4.40
2018-12-21T15:09:49.648Z,3.93
2018-12-21T15:12:17.633Z,4.73
2018-12-21T15:14:45.578Z,4.83
2018-12-21T15:17:13.592Z,4.50
2018-12-21T15:19:41.663Z,5.60
2018-12-21T15:22:09.621Z,5.40
2018-12-21T15:24:37.601Z,4.00
2018-12-21T15:27:05.728Z,5.10
2018-12-21T15:29:33.721Z,5.30
2018-12-21T15:32:01.659Z,5.17
2018-12-21T15:34:29.476Z,3.70
2018-12-21T15:36:57.515Z,4.10
2018-12-21T15:39:25.582Z,3.90
2018-12-21T15:41:53.483Z,3.70
2018-12-21T15:44:21.465Z,5.20
2018-12-21T15:46:49.423Z,3.97
2018-12-21T15:49:17.395Z,5.10
2018-12-21T15:51:45.485Z,4.30
2018-12-21T15:54:13.477Z,3.77
2018-12-21T15:56:41.503Z,3.77
2018-12-21T15:59:09.485Z,3.87
2018-12-21T16:01:37.441Z,4.10
2018-12-21T16:04:05.438Z,4.93
2018-12-21T16:06:35.613Z,4.60
2018-12-21T16:09:04.647Z,5.20
2018-12-21T16:11:32.561Z,4.87
2018-12-21T16:14:00.628Z,5.07
2018-12-21T16:16:28.592Z,5.60
2018-12-21T16:18:56.602Z,4.73
2018-12-21T16:21:24.323Z,5.03
2018-12-21T16:23:52.333Z,7.03
2018-12-21T16:26:20.406Z,4.73
2018-12-21T16:28:48.478Z,4.90
2018-12-21T16:31:16.711Z,4.30
2018-12-21T16:33:44.702Z,4.40
2018-12-21T16:36:12.699Z,3.80
2018-12-21T16:38:40.611Z,5.00
2018-12-21T16:41:08.473Z,5.10
2018-12-21T16:43:36.415Z,4.10
2018-12-21T16:46:04.371Z,3.60
2018-12-21T16:48:32.270Z,4.90
2018-12-21T16:51:00.506Z,4.57
2018-12-21T16:53:28.503Z,5.07
2018-12-21T16:55:56.443Z,4.40
2018-12-21T16:58:24.515Z,3.93
2018-12-21T17:00:52.349Z,3.20
2018-12-21T17:03:20.417Z,3.43
2018-12-21T17:05:48.522Z,3.90
2018-12-21T17:08:16.572Z,3.27
2018-12-21T17:10:44.712Z,3.03
2018-12-21T17:13:12.629Z,4.00
2018-12-21T17:15:40.443Z,4.37
2018-12-21T17:18:08.435Z,4.03
2018-12-21T17:20:36.525Z,4.80
2018-12-21T17:23:04.591Z,4.60
2018-12-21T17:25:33.008Z,5.07
2018-12-21T17:28:01.022Z,5.00
2018-12-21T17:30:29.014Z,4.97
2018-12-21T17:32:57.079Z,4.83
2018-12-21T17:35:25.173Z,5.10
2018-12-21T17:37:53.244Z,4.57
2018-12-21T17:40:21.724Z,4.50
2018-12-21T17:42:49.797Z,4.93
2018-12-21T17:45:17.510Z,4.23
2018-12-21T17:47:45.573Z,6.93
2018-12-21T17:50:13.587Z,5.30
2018-12-21T17:52:41.531Z,5.80
2018-12-21T17:55:09.519Z,5.80
2018-12-21T17:57:37.611Z,6.00
2018-12-21T18:00:09.551Z,5.77
2018-12-21T18:02:37.616Z,7.80
2018-12-21T18:05:06.213Z,5.20
2018-12-21T18:07:34.323Z,6.83
2018-12-21T18:10:02.313Z,6.83
2018-12-21T18:12:30.503Z,6.10
2018-12-21T18:14:58.594Z,8.17
2018-12-21T18:17:27.484Z,6.97
2018-12-21T18:19:55.550Z,6.07
2018-12-21T18:22:23.852Z,5.90
2018-12-21T18:24:51.581Z,6.10
2018-12-21T18:27:19.549Z,5.83
2018-12-21T18:29:47.657Z,6.40
2018-12-21T18:32:17.501Z,5.90
2018-12-21T18:34:45.436Z,5.77
2018-12-21T18:37:13.508Z,5.03
2018-12-21T18:39:41.425Z,5.50
2018-12-21T18:42:09.341Z,6.10
2018-12-21T18:44:37.281Z,5.40
2018-12-21T18:47:05.021Z,4.70
2018-12-21T18:49:32.938Z,4.90
2018-12-21T18:52:00.752Z,5.80
2018-12-21T18:54:28.777Z,4.63
2018-12-21T18:56:56.785Z,4.67
2018-12-21T18:59:24.899Z,5.33
2018-12-21T19:01:52.988Z,4.63
2018-12-21T19:04:20.957Z,4.00
2018-12-21T19:06:48.898Z,3.90
2018-12-21T19:09:17.001Z,3.90
2018-12-21T19:11:45.052Z,14.90
2018-12-21T19:14:13.143Z,4.47
2018-12-21T19:16:41.219Z,4.83
2018-12-21T19:19:09.227Z,10.27
2018-12-21T19:21:37.371Z,5.33
2018-12-21T19:24:06.155Z,9.20
2018-12-21T19:26:33.896Z,6.90
2018-12-21T19:29:02.335Z,11.00
2018-12-21T19:31:30.428Z,7.07
2018-12-21T19:33:58.517Z,10.60
2018-12-21T19:36:26.633Z,9.33
2018-12-21T19:38:54.748Z,5.77
2018-12-21T19:41:22.644Z,5.00
2018-12-21T19:43:50.715Z,5.47
2018-12-21T19:46:18.570Z,5.30
2018-12-21T19:48:46.635Z,5.60
2018-12-21T19:51:14.701Z,5.10
2018-12-21T19:53:42.795Z,6.13
2018-12-21T19:56:12.831Z,9.33
2018-12-21T19:58:40.823Z,6.50
2018-12-21T20:01:08.689Z,6.67
2018-12-21T20:03:36.705Z,6.90
2018-12-21T20:06:04.793Z,5.07
2018-12-21T20:08:32.810Z,5.40
2018-12-21T20:11:00.938Z,7.10
2018-12-21T20:13:28.969Z,4.70
2018-12-21T20:15:57.061Z,4.57
2018-12-21T20:18:25.121Z,4.43
2018-12-21T20:20:53.188Z,4.50
2018-12-21T20:23:21.127Z,6.37
2018-12-21T20:25:49.118Z,5.20
2018-12-21T20:28:17.231Z,3.50
2018-12-21T20:30:45.275Z,4.00
2018-12-21T20:33:13.214Z,4.20
2018-12-21T20:35:41.081Z,3.40
2018-12-21T20:38:09.102Z,4.00
2018-12-21T20:40:37.012Z,3.20
2018-12-21T20:43:05.511Z,5.50
2018-12-21T20:45:33.393Z,3.77
2018-12-21T20:48:01.386Z,2.47
2018-12-21T20:50:29.463Z,3.00
2018-12-21T20:52:57.439Z,2.60
2018-12-21T20:55:25.580Z,3.30
2018-12-21T20:57:53.939Z,3.90
2018-12-21T21:00:21.786Z,3.77
2018-12-21T21:02:49.777Z,3.60
2018-12-21T21:05:17.886Z,4.60
2018-12-21T21:07:45.883Z,5.60
2018-12-21T21:10:13.837Z,3.93
2018-12-21T21:12:42.065Z,3.20
2018-12-21T21:15:11.871Z,4.20
2018-12-21T21:17:39.880Z,5.37
2018-12-21T21:20:13.261Z,3.73
2018-12-21T21:22:41.500Z,3.90
2018-12-21T21:25:09.593Z,3.00
2018-12-21T21:27:37.556Z,3.43
2018-12-21T21:30:12.602Z,3.00
2018-12-21T21:32:40.488Z,2.83
2018-12-21T21:35:08.666Z,3.63
2018-12-21T21:37:36.595Z,3.20
2018-12-21T21:40:09.223Z,2.60
2018-12-21T21:42:37.150Z,3.20
2018-12-21T21:45:07.876Z,4.50
2018-12-21T21:47:35.830Z,3.43
2018-12-21T21:50:06.315Z,3.53
2018-12-21T21:52:34.236Z,3.00
2018-12-21T21:55:02.232Z,3.23
2018-12-21T21:57:38.837Z,3.40
2018-12-21T22:00:00.466Z,4.10
2018-12-21T22:02:28.417Z,3.87
2018-12-21T22:04:56.564Z,3.37
2018-12-21T22:07:25.029Z,3.53
2018-12-21T22:09:53.172Z,3.73
2018-12-21T22:12:21.308Z,2.90
2018-12-21T22:14:49.351Z,3.73
2018-12-21T22:17:17.448Z,2.50
2018-12-21T22:19:45.420Z,2.73
2018-12-21T22:22:13.448Z,3.23
2018-12-21T22:24:41.459Z,4.13
2018-12-21T22:27:09.504Z,3.00
2018-12-21T22:29:37.602Z,2.30
2018-12-21T22:32:05.586Z,2.93
2018-12-21T22:34:34.051Z,3.70
2018-12-21T22:37:01.790Z,3.50
2018-12-21T22:39:29.957Z,3.70
2018-12-21T22:41:58.058Z,2.90
2018-12-21T22:44:25.988Z,3.20
2018-12-21T22:46:53.853Z,3.07
2018-12-21T22:49:22.361Z,3.87
2018-12-21T22:51:50.733Z,3.83
2018-12-21T22:54:18.799Z,7.07
2018-12-21T22:56:48.943Z,5.03
2018-12-21T22:59:17.016Z,4.10
2018-12-21T23:01:45.059Z,5.03
2018-12-21T23:04:13.157Z,3.20
2018-12-21T23:06:41.638Z,2.73
2018-12-21T23:09:09.504Z,3.00
2018-12-21T23:11:37.332Z,2.97
2018-12-21T23:14:05.601Z,3.17
2018-12-21T23:16:33.717Z,2.70
2018-12-21T23:19:01.580Z,2.50
2018-12-21T23:21:29.519Z,3.13
2018-12-21T23:23:57.419Z,2.70
2018-12-21T23:26:25.550Z,2.30
2018-12-21T23:28:53.841Z,2.27
2018-12-21T23:31:21.806Z,2.80
2018-12-21T23:33:49.872Z,1.90
2018-12-21T23:36:17.963Z,2.83
2018-12-21T23:38:47.055Z,2.97
2018-12-21T23:41:15.142Z,2.30
2018-12-21T23:43:43.387Z,2.43
2018-12-21T23:46:11.721Z,2.40
2018-12-21T23:48:39.690Z,2.20
2018-12-21T23:51:07.641Z,2.67
2018-12-21T23:53:35.667Z,2.53
2018-12-21T23:56:11.800Z,2.07
2018-12-21T23:58:33.878Z,2.03
